Time;durP1;ratioP1;P1;durP2;ratioP2;P2;SDS_P1;SDS_P2;PMS_P1;PMS_P2;Temp;Humidity;BMP_temperature;BMP_pressure;BME280_temperature;BME280_humidity;BME280_pressure;Samples;Min_cycle;Max_cycle;Signal;HPM_P1;HPM_P2
2024/03/09 00:00:42;;;;;;;16.67;12.20;;;9.00;99.90;;;;;;5070623;28;20263;-60
2024/03/09 00:03:11;;;;;;;16.97;11.13;;;9.00;99.90;;;;;;5068805;28;20283;-60
2024/03/09 00:05:39;;;;;;;18.00;12.40;;;9.00;99.90;;;;;;5069950;28;20670;-60
2024/03/09 00:08:08;;;;;;;15.83;10.97;;;9.00;99.90;;;;;;5070420;28;20194;-60
2024/03/09 00:10:36;;;;;;;18.50;12.50;;;9.00;99.90;;;;;;5071402;28;20541;-60
2024/03/09 00:13:03;;;;;;;19.90;12.83;;;9.00;99.90;;;;;;5069828;28;20278;-60
2024/03/09 00:15:31;;;;;;;16.63;12.73;;;9.00;99.90;;;;;;5071956;28;20291;-60
2024/03/09 00:17:58;;;;;;;17.50;12.50;;;9.00;99.90;;;;;;5069675;28;20242;-60
2024/03/09 00:20:34;;;;;;;19.53;12.33;;;9.00;99.90;;;;;;5071637;28;20219;-60
2024/03/09 00:23:03;;;;;;;16.13;12.03;;;9.00;99.90;;;;;;5071046;28;20218;-60
2024/03/09 00:25:34;;;;;;;16.60;11.77;;;9.00;99.90;;;;;;5069687;28;20191;-61
2024/03/09 00:28:02;;;;;;;19.73;12.53;;;9.00;99.90;;;;;;5072641;28;20211;-60
2024/03/09 00:30:32;;;;;;;20.30;12.90;;;9.10;99.90;;;;;;5070680;28;20202;-60
2024/03/09 00:33:00;;;;;;;17.17;12.63;;;9.10;99.90;;;;;;5072105;28;20214;-60
2024/03/09 00:35:30;;;;;;;16.87;11.70;;;9.10;99.90;;;;;;5070696;28;20632;-60
2024/03/09 00:37:59;;;;;;;20.20;12.83;;;9.10;99.90;;;;;;5072134;28;20233;-60
2024/03/09 00:40:30;;;;;;;17.00;12.70;;;9.10;99.90;;;;;;5071658;28;20276;-60
2024/03/09 00:42:59;;;;;;;16.73;12.83;;;9.10;99.90;;;;;;5072310;28;20203;-60
2024/03/09 00:45:27;;;;;;;18.87;12.77;;;9.10;99.90;;;;;;5071469;28;20292;-61
2024/03/09 00:47:54;;;;;;;20.40;12.37;;;9.20;99.90;;;;;;5070908;28;20195;-61
2024/03/09 00:50:21;;;;;;;20.03;13.67;;;9.20;99.90;;;;;;5071372;28;20211;-61
2024/03/09 00:52:49;;;;;;;22.47;13.53;;;9.20;99.90;;;;;;5070670;28;20211;-61
2024/03/09 00:55:16;;;;;;;17.97;13.30;;;9.20;99.90;;;;;;5072209;28;20205;-61
2024/03/09 00:57:46;;;;;;;19.43;13.27;;;9.20;99.90;;;;;;5071302;28;20841;-61
2024/03/09 01:00:16;;;;;;;18.87;13.30;;;9.20;99.90;;;;;;5067978;28;20237;-60
2024/03/09 01:02:45;;;;;;;20.87;13.70;;;9.30;99.90;;;;;;5067063;28;20205;-60
2024/03/09 01:05:19;;;;;;;19.47;13.90;;;9.30;99.90;;;;;;5071421;28;20194;-61
2024/03/09 01:07:46;;;;;;;20.23;13.50;;;9.30;99.90;;;;;;5071224;28;20277;-61
2024/03/09 01:10:13;;;;;;;16.90;12.87;;;9.30;99.90;;;;;;5073783;28;20270;-61
2024/03/09 01:12:40;;;;;;;22.67;15.10;;;9.30;99.90;;;;;;5075660;28;20298;-61
2024/03/09 01:15:09;;;;;;;21.97;13.80;;;9.30;99.90;;;;;;5075667;28;20776;-61
2024/03/09 01:17:37;;;;;;;20.10;13.90;;;9.30;99.90;;;;;;5088231;28;20618;-60
2024/03/09 01:20:06;;;;;;;20.57;13.67;;;9.40;99.90;;;;;;5074481;28;20231;-61
2024/03/09 01:22:35;;;;;;;16.40;13.50;;;9.40;99.90;;;;;;5072864;28;20210;-61
2024/03/09 01:25:02;;;;;;;20.43;13.70;;;9.40;99.90;;;;;;5071645;28;20202;-61
2024/03/09 01:27:30;;;;;;;18.90;13.77;;;9.50;99.90;;;;;;5074297;28;20200;-61
2024/03/09 01:30:00;;;;;;;20.30;13.80;;;9.50;99.90;;;;;;5073844;28;20702;-61
2024/03/09 01:32:28;;;;;;;22.10;14.37;;;9.50;99.90;;;;;;5072967;28;20204;-60
2024/03/09 01:34:56;;;;;;;22.20;13.63;;;9.50;99.90;;;;;;5072668;28;20204;-61
2024/03/09 01:37:24;;;;;;;19.93;13.93;;;9.50;99.90;;;;;;5074759;28;20344;-60
2024/03/09 01:39:52;;;;;;;24.50;14.37;;;9.50;99.90;;;;;;5074514;28;20197;-61
2024/03/09 01:42:21;;;;;;;20.87;14.20;;;9.50;99.90;;;;;;5065531;28;20213;-61
2024/03/09 01:44:50;;;;;;;19.93;13.23;;;9.60;99.90;;;;;;5068138;28;20221;-61
2024/03/09 01:47:22;;;;;;;20.27;14.07;;;9.60;99.90;;;;;;5073460;28;20244;-61
2024/03/09 01:49:52;;;;;;;20.30;14.40;;;9.60;99.90;;;;;;5073279;28;20290;-61
2024/03/09 01:52:25;;;;;;;22.40;13.90;;;9.60;99.90;;;;;;5070524;28;20262;-61
2024/03/09 01:54:55;;;;;;;20.50;13.47;;;9.60;99.90;;;;;;5072454;28;20246;-61
2024/03/09 01:57:22;;;;;;;24.87;15.10;;;9.60;99.90;;;;;;5073036;28;20277;-60
2024/03/09 01:59:54;;;;;;;22.10;13.83;;;9.70;99.90;;;;;;5073366;28;20323;-61
2024/03/09 02:02:25;;;;;;;23.00;14.00;;;9.70;99.90;;;;;;5072596;28;20193;-61
2024/03/09 02:04:52;;;;;;;22.17;14.57;;;9.70;99.90;;;;;;5075022;28;20187;-61
2024/03/09 02:07:19;;;;;;;21.77;14.87;;;9.70;99.90;;;;;;5074823;28;20193;-61
2024/03/09 02:09:48;;;;;;;19.37;12.77;;;9.70;99.90;;;;;;5073992;28;20689;-61
2024/03/09 02:12:17;;;;;;;24.83;15.07;;;9.70;99.90;;;;;;5073432;28;20258;-61
2024/03/09 02:14:45;;;;;;;19.13;13.40;;;9.70;99.90;;;;;;5073439;28;20196;-61
2024/03/09 02:17:13;;;;;;;21.70;13.63;;;9.70;99.90;;;;;;5074260;28;20212;-61
2024/03/09 02:19:41;;;;;;;21.97;14.87;;;9.70;99.90;;;;;;5073050;28;20223;-61
2024/03/09 02:22:15;;;;;;;21.30;14.93;;;9.70;99.90;;;;;;5073709;28;20540;-61
2024/03/09 02:24:50;;;;;;;19.73;14.20;;;9.70;99.90;;;;;;5073920;28;20202;-61
2024/03/09 02:27:20;;;;;;;17.37;13.00;;;9.70;99.90;;;;;;5071334;28;20707;-61
2024/03/09 02:29:47;;;;;;;22.67;13.53;;;9.70;99.90;;;;;;5073692;28;20204;-60
2024/03/09 02:32:15;;;;;;;17.23;12.80;;;9.70;99.90;;;;;;5073718;28;20210;-61
2024/03/09 02:34:42;;;;;;;20.63;14.50;;;9.70;99.90;;;;;;5073558;28;20212;-61
2024/03/09 02:37:10;;;;;;;18.97;12.07;;;9.70;99.90;;;;;;5073955;28;20640;-61
2024/03/09 02:39:37;;;;;;;17.70;12.63;;;9.70;99.90;;;;;;5074613;28;20260;-61
2024/03/09 02:42:04;;;;;;;19.47;13.57;;;9.80;99.90;;;;;;5071188;28;20223;-61
2024/03/09 02:44:31;;;;;;;17.80;13.30;;;9.70;99.90;;;;;;5071534;28;20205;-61
2024/03/09 02:46:58;;;;;;;22.97;14.10;;;9.80;99.90;;;;;;5069462;28;20615;-61
2024/03/09 02:49:25;;;;;;;22.50;15.03;;;9.70;99.90;;;;;;5066157;28;20191;-61
2024/03/09 02:51:53;;;;;;;21.13;13.77;;;9.80;99.90;;;;;;5063955;28;20666;-61
2024/03/09 02:54:23;;;;;;;19.93;14.60;;;9.80;99.90;;;;;;5070347;28;20208;-61
2024/03/09 02:56:50;;;;;;;20.30;13.93;;;9.80;99.90;;;;;;5069252;28;20250;-61
2024/03/09 02:59:18;;;;;;;21.87;15.77;;;9.80;99.90;;;;;;5072402;28;20247;-61
2024/03/09 03:01:46;;;;;;;21.50;13.77;;;9.70;99.90;;;;;;5073056;28;20246;-60
2024/03/09 03:04:14;;;;;;;19.33;13.27;;;9.70;99.90;;;;;;5071254;28;20222;-61
2024/03/09 03:06:43;;;;;;;17.37;13.83;;;9.70;99.90;;;;;;5073590;28;20282;-61
2024/03/09 03:09:16;;;;;;;18.43;13.40;;;9.70;99.90;;;;;;5068185;28;20215;-61
2024/03/09 03:11:43;;;;;;;21.60;14.67;;;9.80;99.90;;;;;;5070093;28;20212;-61
2024/03/09 03:14:11;;;;;;;22.07;14.87;;;9.70;99.90;;;;;;5072252;28;20228;-61
2024/03/09 03:16:39;;;;;;;22.37;15.43;;;9.70;99.90;;;;;;5071784;28;20207;-61
2024/03/09 03:19:09;;;;;;;22.93;15.00;;;9.70;99.90;;;;;;5070925;28;20224;-61
2024/03/09 03:21:39;;;;;;;25.43;14.50;;;9.70;99.90;;;;;;5072171;28;20208;-61
2024/03/09 03:24:09;;;;;;;20.50;13.77;;;9.70;99.90;;;;;;5070824;28;20592;-61
2024/03/09 03:26:36;;;;;;;19.80;13.70;;;9.70;99.90;;;;;;5070288;28;20226;-61
2024/03/09 03:29:04;;;;;;;22.43;13.57;;;9.60;99.90;;;;;;5071665;28;20545;-61
2024/03/09 03:31:32;;;;;;;17.37;13.57;;;9.60;99.90;;;;;;5071422;28;20699;-61
2024/03/09 03:34:00;;;;;;;19.33;13.87;;;9.60;99.90;;;;;;5072869;28;20638;-61
2024/03/09 03:36:28;;;;;;;21.10;14.27;;;9.60;99.90;;;;;;5075076;28;20203;-61
2024/03/09 03:38:55;;;;;;;20.60;14.90;;;9.60;99.90;;;;;;5072220;28;20220;-61
2024/03/09 03:41:23;;;;;;;24.00;14.80;;;9.50;99.90;;;;;;5072339;28;20271;-61
2024/03/09 03:43:50;;;;;;;21.70;15.63;;;9.50;99.90;;;;;;5074083;28;20197;-61
2024/03/09 03:46:18;;;;;;;25.23;15.57;;;9.60;99.90;;;;;;5071543;28;20198;-61
2024/03/09 03:48:45;;;;;;;22.60;14.17;;;9.60;99.90;;;;;;5072745;28;20220;-61
2024/03/09 03:51:15;;;;;;;21.37;15.53;;;9.50;99.90;;;;;;5070070;28;20205;-61
2024/03/09 03:53:44;;;;;;;18.83;15.33;;;9.60;99.90;;;;;;5070596;28;20201;-61
2024/03/09 03:56:12;;;;;;;21.30;14.67;;;9.60;99.90;;;;;;5071917;28;20199;-61
2024/03/09 03:58:44;;;;;;;26.13;15.53;;;9.60;99.90;;;;;;5072803;28;20199;-61
2024/03/09 04:01:11;;;;;;;22.43;15.03;;;9.70;99.90;;;;;;5070485;28;20290;-61
2024/03/09 04:03:39;;;;;;;22.07;15.27;;;9.70;99.90;;;;;;5073403;28;20197;-61
2024/03/09 04:06:07;;;;;;;20.40;14.93;;;9.70;99.90;;;;;;5072113;28;20197;-61
2024/03/09 04:08:35;;;;;;;20.40;15.07;;;9.80;99.90;;;;;;5073339;28;20211;-61
2024/03/09 04:11:06;;;;;;;19.00;14.53;;;9.70;99.90;;;;;;5071847;28;20201;-61
2024/03/09 04:13:33;;;;;;;23.23;15.63;;;9.80;99.90;;;;;;5071750;28;20307;-61
2024/03/09 04:16:03;;;;;;;22.57;15.67;;;9.70;99.90;;;;;;5072369;28;20201;-61
2024/03/09 04:18:31;;;;;;;23.20;16.07;;;9.70;99.90;;;;;;5071529;28;20208;-60
2024/03/09 04:21:02;;;;;;;25.60;15.63;;;9.70;99.90;;;;;;5073245;28;20220;-60
2024/03/09 04:23:30;;;;;;;22.63;14.57;;;9.70;99.90;;;;;;5071282;28;20200;-61
2024/03/09 04:25:57;;;;;;;23.97;15.37;;;9.70;99.90;;;;;;5071178;28;20262;-60
2024/03/09 04:28:27;;;;;;;23.00;14.87;;;9.70;99.90;;;;;;5072208;28;20668;-60
2024/03/09 04:30:59;;;;;;;25.60;15.03;;;9.60;99.90;;;;;;5072750;28;20199;-61
2024/03/09 04:33:28;;;;;;;21.03;15.40;;;9.60;99.90;;;;;;5072064;28;20201;-61
2024/03/09 04:35:57;;;;;;;22.40;16.30;;;9.60;99.90;;;;;;5071891;28;20292;-61
2024/03/09 04:38:25;;;;;;;24.07;15.97;;;9.60;99.90;;;;;;5068788;28;20251;-61
2024/03/09 04:40:53;;;;;;;19.73;15.07;;;9.50;99.90;;;;;;5066941;28;20650;-61
2024/03/09 04:43:20;;;;;;;23.73;15.93;;;9.50;99.90;;;;;;5062432;28;20200;-61
2024/03/09 04:45:50;;;;;;;23.40;15.23;;;9.50;99.90;;;;;;5077118;28;20197;-61
2024/03/09 04:48:18;;;;;;;22.93;15.70;;;9.50;99.90;;;;;;5077567;28;20287;-61
2024/03/09 04:50:47;;;;;;;20.33;15.77;;;9.50;99.90;;;;;;5073797;28;20549;-61
2024/03/09 04:53:16;;;;;;;23.20;15.93;;;9.50;99.90;;;;;;5072456;28;20203;-61
2024/03/09 04:55:48;;;;;;;21.93;15.30;;;9.50;99.90;;;;;;5075143;28;20227;-61
2024/03/09 04:58:18;;;;;;;23.17;15.60;;;9.50;99.90;;;;;;5075439;28;20560;-61
2024/03/09 05:00:46;;;;;;;23.43;15.33;;;9.50;99.90;;;;;;5072985;28;20232;-61
2024/03/09 05:03:13;;;;;;;21.43;15.57;;;9.50;99.90;;;;;;5075527;28;20223;-61
2024/03/09 05:05:42;;;;;;;21.13;15.07;;;9.40;99.90;;;;;;5069160;28;20219;-61
2024/03/09 05:08:10;;;;;;;23.63;15.77;;;9.40;99.90;;;;;;5077349;28;20286;-61
2024/03/09 05:10:39;;;;;;;20.47;14.77;;;9.40;99.90;;;;;;5076791;28;20185;-61
2024/03/09 05:13:07;;;;;;;24.93;15.60;;;9.40;99.90;;;;;;5076814;28;20192;-61
2024/03/09 05:15:36;;;;;;;21.73;15.60;;;9.30;99.90;;;;;;5076938;28;20629;-61
2024/03/09 05:18:09;;;;;;;22.50;15.90;;;9.30;99.90;;;;;;5075455;28;20290;-61
2024/03/09 05:20:37;;;;;;;22.50;15.67;;;9.30;99.90;;;;;;5076173;28;20228;-60
2024/03/09 05:23:07;;;;;;;23.97;17.40;;;9.30;99.90;;;;;;5075279;28;20216;-61
2024/03/09 05:25:41;;;;;;;26.80;15.27;;;9.30;99.90;;;;;;5071866;28;20515;-61
2024/03/09 05:28:12;;;;;;;24.63;16.73;;;9.30;99.90;;;;;;5073739;28;20202;-60
2024/03/09 05:30:43;;;;;;;27.87;16.77;;;9.30;99.90;;;;;;5074806;28;20668;-61
2024/03/09 05:33:11;;;;;;;27.73;15.70;;;9.20;99.90;;;;;;5074340;28;20195;-61
2024/03/09 05:35:39;;;;;;;23.93;16.30;;;9.20;99.90;;;;;;5073819;28;20219;-60
2024/03/09 05:38:08;;;;;;;24.27;16.13;;;9.20;99.90;;;;;;5074286;28;20633;-61
2024/03/09 05:40:37;;;;;;;26.27;16.40;;;9.20;99.90;;;;;;5073552;28;20506;-60
2024/03/09 05:43:07;;;;;;;25.40;16.90;;;9.20;99.90;;;;;;5073985;28;20837;-61
2024/03/09 05:45:38;;;;;;;26.03;15.53;;;9.20;99.90;;;;;;5074056;28;20249;-61
2024/03/09 05:48:07;;;;;;;24.47;16.27;;;9.20;99.90;;;;;;5073414;28;20202;-61
2024/03/09 05:50:37;;;;;;;22.53;15.70;;;9.20;99.90;;;;;;5073810;28;20726;-61
2024/03/09 05:53:05;;;;;;;20.63;15.43;;;9.10;99.90;;;;;;5083846;28;20719;-61
2024/03/09 05:55:33;;;;;;;24.67;17.23;;;9.10;99.90;;;;;;5073996;28;20618;-61
2024/03/09 05:58:00;;;;;;;24.20;16.20;;;9.10;99.90;;;;;;5072387;28;20273;-61
2024/03/09 06:00:31;;;;;;;20.37;14.83;;;9.10;99.90;;;;;;5072546;28;20236;-61
2024/03/09 06:03:06;;;;;;;21.70;16.47;;;9.10;99.90;;;;;;5075585;28;20215;-61
2024/03/09 06:05:34;;;;;;;20.90;15.13;;;9.10;99.90;;;;;;5073981;28;20265;-61
2024/03/09 06:08:02;;;;;;;24.60;15.30;;;9.10;99.90;;;;;;5075420;28;20203;-61
2024/03/09 06:10:30;;;;;;;24.27;15.57;;;9.10;99.90;;;;;;5072499;28;20196;-61
2024/03/09 06:12:58;;;;;;;22.57;15.67;;;9.10;99.90;;;;;;5073053;28;20204;-61
2024/03/09 06:15:25;;;;;;;21.70;14.37;;;9.10;99.90;;;;;;5075680;28;20216;-60
2024/03/09 06:17:58;;;;;;;23.70;16.00;;;9.10;99.90;;;;;;5074731;28;20282;-61
2024/03/09 06:20:27;;;;;;;20.30;13.90;;;9.10;99.90;;;;;;5073771;28;20207;-61
2024/03/09 06:22:56;;;;;;;23.70;15.07;;;9.10;99.90;;;;;;5075931;28;20667;-61
2024/03/09 06:25:29;;;;;;;20.07;13.57;;;9.10;99.90;;;;;;5074098;28;20224;-61
2024/03/09 06:28:02;;;;;;;20.17;15.00;;;9.10;99.90;;;;;;5075028;28;20604;-61
2024/03/09 06:30:30;;;;;;;18.17;13.27;;;9.10;99.90;;;;;;5075067;28;20645;-61
2024/03/09 06:33:00;;;;;;;20.40;14.30;;;9.10;99.90;;;;;;5072079;28;20662;-61
2024/03/09 06:35:31;;;;;;;23.73;15.03;;;9.20;99.90;;;;;;5073334;28;20209;-61
2024/03/09 06:38:05;;;;;;;24.57;16.13;;;9.10;99.90;;;;;;5067348;28;20649;-61
2024/03/09 06:40:45;;;;;;;21.03;14.00;;;9.20;99.90;;;;;;5076734;28;20595;-60
2024/03/09 06:43:14;;;;;;;18.53;13.27;;;9.20;99.90;;;;;;5068424;28;20655;-60
2024/03/09 06:45:46;;;;;;;19.07;14.03;;;9.20;99.90;;;;;;5071347;28;20223;-60
2024/03/09 06:48:17;;;;;;;19.17;13.53;;;9.20;99.90;;;;;;5072395;28;20300;-60
2024/03/09 06:50:45;;;;;;;17.90;13.10;;;9.20;99.90;;;;;;5079936;28;20563;-60
2024/03/09 06:53:13;;;;;;;20.50;13.43;;;9.20;99.90;;;;;;5074720;28;20222;-60
2024/03/09 06:55:40;;;;;;;17.63;12.53;;;9.20;99.90;;;;;;5050625;28;20203;-60
2024/03/09 06:58:07;;;;;;;17.50;13.47;;;9.20;99.90;;;;;;5071273;28;20204;-60
2024/03/09 07:00:35;;;;;;;19.33;13.37;;;9.20;99.90;;;;;;5073384;28;20240;-60
2024/03/09 07:03:06;;;;;;;17.17;11.10;;;9.20;99.90;;;;;;5071751;28;20211;-60
2024/03/09 07:05:34;;;;;;;17.83;12.53;;;9.20;99.90;;;;;;5071972;28;20196;-60
2024/03/09 07:08:03;;;;;;;15.80;12.30;;;9.30;99.90;;;;;;5074128;28;20198;-60
2024/03/09 07:10:32;;;;;;;18.93;12.23;;;9.30;99.90;;;;;;5089632;28;20213;-60
2024/03/09 07:13:00;;;;;;;18.80;12.03;;;9.30;99.90;;;;;;5074838;28;20265;-60
2024/03/09 07:15:30;;;;;;;15.20;11.20;;;9.30;99.90;;;;;;5074251;28;20203;-60
2024/03/09 07:17:57;;;;;;;18.10;11.33;;;9.40;99.90;;;;;;5073207;28;20203;-60
2024/03/09 07:20:27;;;;;;;19.80;12.37;;;9.40;99.90;;;;;;5074520;28;20223;-60
2024/03/09 07:22:55;;;;;;;14.67;10.60;;;9.40;99.90;;;;;;5071089;28;20640;-60
2024/03/09 07:25:25;;;;;;;18.50;11.47;;;9.40;99.90;;;;;;5071477;28;20212;-60
2024/03/09 07:27:57;;;;;;;14.50;10.70;;;9.40;99.90;;;;;;5072932;28;20260;-60
2024/03/09 07:30:26;;;;;;;15.93;11.63;;;9.40;99.90;;;;;;5069619;28;20219;-60
2024/03/09 07:32:53;;;;;;;16.03;10.40;;;9.40;99.90;;;;;;5072567;28;20524;-60
2024/03/09 07:35:27;;;;;;;15.73;10.97;;;9.40;99.90;;;;;;5087893;28;20551;-60
2024/03/09 07:37:58;;;;;;;14.03;10.80;;;9.50;99.90;;;;;;5073212;28;20213;-60
2024/03/09 07:40:36;;;;;;;16.60;11.27;;;9.50;99.90;;;;;;5072911;28;20199;-60
2024/03/09 07:43:05;;;;;;;14.47;9.87;;;9.50;99.90;;;;;;5067742;28;20212;-59
2024/03/09 07:45:33;;;;;;;15.73;10.67;;;9.60;99.90;;;;;;5072182;28;20210;-60
2024/03/09 07:48:01;;;;;;;17.83;10.73;;;9.60;99.90;;;;;;5067868;28;20197;-60
2024/03/09 07:50:29;;;;;;;16.53;10.13;;;9.60;99.90;;;;;;5068368;28;20196;-60
2024/03/09 07:52:56;;;;;;;14.57;10.80;;;9.60;99.90;;;;;;5068159;28;20234;-60
2024/03/09 07:55:27;;;;;;;15.13;10.77;;;9.60;99.90;;;;;;5069226;28;20204;-60
2024/03/09 07:57:58;;;;;;;14.03;9.83;;;9.70;99.90;;;;;;5070891;28;20206;-60
2024/03/09 08:00:44;;;;;;;14.70;10.10;;;9.70;99.90;;;;;;5070745;28;20716;-60
2024/03/09 08:03:12;;;;;;;14.90;10.27;;;9.70;99.90;;;;;;5070046;28;20297;-60
2024/03/09 08:05:41;;;;;;;13.70;9.83;;;9.70;99.90;;;;;;5071769;28;20208;-60
2024/03/09 08:08:09;;;;;;;14.40;11.60;;;9.70;99.90;;;;;;5071237;28;20202;-60
2024/03/09 08:10:46;;;;;;;16.97;11.33;;;9.70;99.90;;;;;;5070595;28;20204;-60
2024/03/09 08:13:19;;;;;;;12.73;10.30;;;9.70;99.90;;;;;;5070782;28;20559;-60
2024/03/09 08:15:46;;;;;;;13.83;10.70;;;9.80;99.90;;;;;;5069590;28;20288;-60
2024/03/09 08:18:14;;;;;;;12.87;10.73;;;9.80;99.90;;;;;;5070359;28;20710;-60
2024/03/09 08:20:41;;;;;;;17.57;11.60;;;9.90;99.90;;;;;;5069865;28;20642;-60
2024/03/09 08:23:08;;;;;;;13.73;10.47;;;9.80;99.90;;;;;;5072064;28;20210;-60
2024/03/09 08:25:36;;;;;;;13.33;11.30;;;9.90;99.90;;;;;;5072184;28;20218;-60
2024/03/09 08:28:04;;;;;;;13.23;10.13;;;9.90;99.90;;;;;;5072138;28;20282;-60
2024/03/09 08:30:31;;;;;;;16.53;10.97;;;9.90;99.90;;;;;;5071983;28;20233;-60
2024/03/09 08:32:58;;;;;;;14.73;10.33;;;10.00;99.90;;;;;;5071802;28;20204;-60
2024/03/09 08:35:31;;;;;;;14.43;10.97;;;10.00;99.90;;;;;;5072704;28;20196;-60
2024/03/09 08:37:59;;;;;;;16.53;11.80;;;10.00;99.90;;;;;;5071719;28;20201;-60
2024/03/09 08:40:26;;;;;;;16.27;12.53;;;10.00;99.90;;;;;;5070196;28;20295;-60
2024/03/09 08:42:54;;;;;;;17.33;12.60;;;10.00;99.90;;;;;;5068413;28;20208;-60
2024/03/09 08:45:24;;;;;;;15.70;12.47;;;10.00;99.90;;;;;;5069311;28;20204;-60
2024/03/09 08:47:53;;;;;;;16.40;12.23;;;10.00;99.90;;;;;;5069992;28;20620;-61
2024/03/09 08:50:22;;;;;;;20.17;13.97;;;10.10;99.90;;;;;;5070399;28;20197;-60
2024/03/09 08:52:50;;;;;;;15.53;13.23;;;10.10;99.90;;;;;;5070424;28;20653;-60
2024/03/09 08:55:18;;;;;;;15.27;12.50;;;10.10;99.90;;;;;;5070907;28;20201;-60
2024/03/09 08:57:48;;;;;;;15.37;12.43;;;10.20;99.90;;;;;;5069635;28;20207;-60
2024/03/09 09:00:19;;;;;;;15.77;12.27;;;10.30;99.90;;;;;;5068887;28;20447;-60
2024/03/09 09:02:47;;;;;;;15.30;11.30;;;10.30;99.90;;;;;;5071456;28;20209;-60
2024/03/09 09:05:18;;;;;;;15.40;12.67;;;10.30;99.90;;;;;;5071863;28;20297;-60
2024/03/09 09:07:48;;;;;;;16.83;13.57;;;10.40;99.90;;;;;;5071560;28;20197;-59
2024/03/09 09:10:21;;;;;;;17.43;13.27;;;10.40;99.90;;;;;;5070888;28;20193;-60
2024/03/09 09:12:52;;;;;;;16.87;12.53;;;10.50;99.90;;;;;;5071994;28;20213;-59
2024/03/09 09:15:19;;;;;;;15.23;13.17;;;10.50;99.90;;;;;;5065909;28;20193;-60
2024/03/09 09:17:46;;;;;;;16.87;12.70;;;10.50;99.90;;;;;;5069375;28;20740;-60
2024/03/09 09:20:15;;;;;;;17.17;13.27;;;10.60;99.90;;;;;;5068978;28;20202;-60
2024/03/09 09:22:46;;;;;;;16.90;12.77;;;10.60;99.90;;;;;;5068576;28;20213;-60
2024/03/09 09:25:16;;;;;;;16.13;13.07;;;10.60;99.90;;;;;;5069980;28;20197;-60
2024/03/09 09:27:44;;;;;;;15.23;11.97;;;10.60;99.90;;;;;;5070094;28;20197;-60
2024/03/09 09:30:12;;;;;;;16.40;11.67;;;10.70;99.90;;;;;;5075054;28;20200;-60
2024/03/09 09:32:40;;;;;;;14.60;12.07;;;10.70;99.90;;;;;;5075130;28;20196;-60
2024/03/09 09:35:11;;;;;;;13.63;11.33;;;10.70;99.90;;;;;;5074574;28;20279;-60
2024/03/09 09:37:39;;;;;;;13.13;11.10;;;10.70;99.90;;;;;;5074495;28;20653;-60
2024/03/09 09:40:07;;;;;;;12.33;10.07;;;10.80;99.90;;;;;;5075091;28;20200;-59
2024/03/09 09:42:35;;;;;;;13.83;10.77;;;10.80;99.90;;;;;;5074950;28;20217;-59
2024/03/09 09:45:05;;;;;;;13.63;11.00;;;10.80;99.90;;;;;;5072151;28;20260;-59
2024/03/09 09:47:33;;;;;;;13.07;11.00;;;10.90;99.90;;;;;;5073069;28;20228;-60
2024/03/09 09:50:02;;;;;;;14.17;11.57;;;10.90;99.90;;;;;;5072514;28;20631;-59
2024/03/09 09:52:32;;;;;;;13.57;10.37;;;11.00;99.90;;;;;;5074836;28;20651;-59
2024/03/09 09:55:01;;;;;;;14.37;10.93;;;11.10;99.90;;;;;;5071032;28;20202;-60
2024/03/09 09:57:31;;;;;;;12.93;10.47;;;11.10;99.90;;;;;;5074245;28;20198;-60
2024/03/09 09:59:58;;;;;;;13.90;10.20;;;11.10;99.90;;;;;;5071455;28;20327;-60
2024/03/09 10:02:25;;;;;;;14.20;9.83;;;11.20;99.90;;;;;;5069151;28;20308;-59
2024/03/09 10:04:54;;;;;;;14.57;10.67;;;11.30;99.90;;;;;;5074790;28;20292;-60
2024/03/09 10:07:21;;;;;;;15.83;10.67;;;11.30;99.90;;;;;;5074162;28;20201;-60
2024/03/09 10:09:49;;;;;;;14.30;10.20;;;11.40;99.90;;;;;;5074583;28;20279;-60
2024/03/09 10:12:23;;;;;;;13.73;11.50;;;11.40;99.90;;;;;;5074186;28;20296;-59
2024/03/09 10:14:52;;;;;;;14.93;11.57;;;11.40;99.90;;;;;;5073103;28;21061;-60
2024/03/09 10:17:19;;;;;;;13.70;10.50;;;11.40;99.90;;;;;;5073067;28;20293;-60
2024/03/09 10:19:51;;;;;;;14.27;10.53;;;11.40;99.90;;;;;;5073855;28;20217;-60
2024/03/09 10:22:19;;;;;;;11.50;10.30;;;11.50;99.90;;;;;;5072380;28;20270;-59
2024/03/09 10:24:53;;;;;;;14.83;10.23;;;11.50;99.90;;;;;;5073594;28;20572;-59
2024/03/09 10:27:21;;;;;;;11.53;9.97;;;11.50;99.90;;;;;;5073650;28;20268;-59
2024/03/09 10:29:48;;;;;;;11.67;8.40;;;11.50;99.90;;;;;;5073971;28;20731;-59
2024/03/09 10:32:18;;;;;;;10.17;8.67;;;11.60;99.90;;;;;;5072171;28;20204;-59
2024/03/09 10:34:45;;;;;;;12.30;8.90;;;11.70;99.90;;;;;;5071928;28;20200;-60
2024/03/09 10:37:17;;;;;;;12.07;8.63;;;11.70;99.90;;;;;;5073442;28;20565;-60
2024/03/09 10:39:45;;;;;;;10.43;8.53;;;11.80;99.90;;;;;;5069682;28;20198;-60
2024/03/09 10:42:18;;;;;;;10.87;7.70;;;11.90;99.90;;;;;;5072994;28;20213;-59
2024/03/09 10:44:48;;;;;;;9.77;7.83;;;11.90;99.90;;;;;;5072740;28;20204;-60
2024/03/09 10:47:15;;;;;;;9.97;7.77;;;11.90;99.90;;;;;;5070251;28;20213;-59
2024/03/09 10:49:47;;;;;;;11.37;8.13;;;11.90;99.90;;;;;;5070121;28;20240;-59
2024/03/09 10:52:19;;;;;;;11.57;9.27;;;11.90;99.90;;;;;;5071616;28;20592;-59
2024/03/09 10:55:02;;;;;;;11.47;8.33;;;11.90;99.90;;;;;;5073683;28;20216;-60
2024/03/09 10:57:29;;;;;;;11.83;8.47;;;11.90;99.90;;;;;;5072634;28;20742;-59
2024/03/09 11:00:00;;;;;;;10.20;7.73;;;11.80;99.90;;;;;;5072501;28;20232;-60
2024/03/09 11:02:28;;;;;;;9.60;8.20;;;11.90;99.90;;;;;;5073327;28;20229;-60
2024/03/09 11:04:58;;;;;;;8.87;7.67;;;11.90;99.90;;;;;;5073439;28;20202;-59
2024/03/09 11:07:25;;;;;;;9.00;7.43;;;11.90;99.90;;;;;;5071248;28;20217;-59
2024/03/09 11:09:53;;;;;;;10.10;7.87;;;11.90;99.90;;;;;;5072454;28;20196;-60
2024/03/09 11:12:21;;;;;;;9.63;8.03;;;11.90;99.90;;;;;;5070909;28;20204;-60
2024/03/09 11:14:52;;;;;;;11.70;8.60;;;11.80;99.90;;;;;;5073285;28;20195;-61
2024/03/09 11:17:21;;;;;;;11.47;8.80;;;11.80;99.90;;;;;;5071742;28;20502;-60
2024/03/09 11:19:50;;;;;;;10.47;8.17;;;11.80;99.90;;;;;;5067030;28;20280;-59
2024/03/09 11:22:41;;;;;;;10.33;8.43;;;11.70;99.90;;;;;;5070854;28;20202;-60
2024/03/09 11:25:11;;;;;;;11.03;8.27;;;11.70;99.90;;;;;;5069776;28;20223;-59
2024/03/09 11:27:39;;;;;;;10.73;8.57;;;11.70;99.90;;;;;;5072739;28;20201;-60
2024/03/09 11:30:08;;;;;;;12.03;9.30;;;11.80;99.90;;;;;;5071506;28;20200;-60
2024/03/09 11:32:38;;;;;;;11.20;9.40;;;11.70;99.90;;;;;;5070913;28;20610;-59
2024/03/09 11:35:26;;;;;;;12.27;9.97;;;11.80;99.90;;;;;;5071809;28;20209;-59
2024/03/09 11:37:56;;;;;;;12.33;9.37;;;11.80;99.90;;;;;;5072589;28;20232;-59
2024/03/09 11:40:23;;;;;;;16.07;10.43;;;11.80;99.90;;;;;;5072715;28;20525;-60
2024/03/09 11:43:11;;;;;;;12.13;9.90;;;11.80;99.90;;;;;;5070585;28;20308;-60
2024/03/09 11:45:39;;;;;;;12.13;10.10;;;11.80;99.90;;;;;;5070489;28;20194;-60
2024/03/09 11:48:10;;;;;;;12.40;9.87;;;11.90;99.90;;;;;;5071083;28;20204;-60
2024/03/09 11:50:40;;;;;;;11.53;9.97;;;11.90;99.90;;;;;;5068250;28;20204;-60
2024/03/09 11:53:10;;;;;;;13.50;9.50;;;12.00;99.90;;;;;;5070546;28;20204;-60
2024/03/09 11:55:38;;;;;;;13.83;10.67;;;12.00;99.90;;;;;;5068166;28;20845;-60
2024/03/09 11:58:07;;;;;;;16.10;11.00;;;12.10;99.90;;;;;;5069968;28;20277;-60
2024/03/09 12:00:35;;;;;;;14.40;10.93;;;12.10;99.90;;;;;;5070408;28;20248;-60
2024/03/09 12:03:15;;;;;;;12.70;9.77;;;12.20;99.90;;;;;;5071924;28;20224;-60
2024/03/09 12:05:43;;;;;;;13.30;10.90;;;12.20;99.90;;;;;;5070104;28;20280;-60
2024/03/09 12:08:10;;;;;;;10.87;9.67;;;12.30;99.90;;;;;;5071242;28;20495;-60
2024/03/09 12:10:42;;;;;;;12.60;10.30;;;12.30;99.90;;;;;;5072402;28;20209;-60
2024/03/09 12:13:11;;;;;;;10.83;9.73;;;12.40;99.90;;;;;;5070070;28;20209;-60
2024/03/09 12:15:39;;;;;;;13.77;10.77;;;12.40;99.90;;;;;;5069647;28;20205;-60
2024/03/09 12:18:11;;;;;;;11.30;9.67;;;12.40;99.90;;;;;;5072129;28;20292;-60
2024/03/09 12:20:39;;;;;;;12.97;9.57;;;12.40;99.90;;;;;;5070635;28;20210;-60
2024/03/09 12:23:10;;;;;;;11.00;9.70;;;12.40;99.90;;;;;;5070864;28;20213;-60
2024/03/09 12:25:40;;;;;;;9.57;8.57;;;12.50;99.90;;;;;;5069725;28;20198;-60
2024/03/09 12:28:09;;;;;;;10.03;8.93;;;12.50;99.90;;;;;;5070420;28;20202;-60
2024/03/09 12:30:36;;;;;;;10.07;8.97;;;12.60;99.90;;;;;;5070842;28;20194;-59
2024/03/09 12:33:05;;;;;;;12.27;8.73;;;12.60;99.90;;;;;;5070703;28;20205;-59
2024/03/09 12:35:35;;;;;;;11.77;9.67;;;12.80;99.90;;;;;;5065749;28;20235;-59
2024/03/09 12:38:13;;;;;;;9.87;8.50;;;12.80;99.90;;;;;;5071098;28;20201;-59
2024/03/09 12:40:47;;;;;;;10.27;7.97;;;12.90;99.90;;;;;;5071415;28;20208;-59
2024/03/09 12:43:15;;;;;;;10.40;8.43;;;13.00;99.90;;;;;;5066996;28;20218;-59
2024/03/09 12:45:53;;;;;;;11.03;8.60;;;13.20;99.90;;;;;;5071660;28;20204;-59